sensor_id;sensor_type;location;lat;lon;timestamp;P1;durP1;ratioP1;P2;durP2;ratioP2
52962;SDS011;38827;53.024;6.596;2022-10-17T00:00:29;7.15;;;2.88;;
52962;SDS011;38827;53.024;6.596;2022-10-17T00:02:55;11.85;;;3.15;;
52962;SDS011;38827;53.024;6.596;2022-10-17T00:05:21;11.53;;;3.20;;
52962;SDS011;38827;53.024;6.596;2022-10-17T00:07:47;13.70;;;3.42;;
52962;SDS011;38827;53.024;6.596;2022-10-17T00:10:13;12.70;;;3.83;;
52962;SDS011;38827;53.024;6.596;2022-10-17T00:12:38;11.55;;;3.60;;
52962;SDS011;38827;53.024;6.596;2022-10-17T00:15:04;10.10;;;4.03;;
52962;SDS011;38827;53.024;6.596;2022-10-17T00:19:58;10.23;;;3.60;;
52962;SDS011;38827;53.024;6.596;2022-10-17T00:22:24;10.25;;;3.53;;
52962;SDS011;38827;53.024;6.596;2022-10-17T00:24:51;9.82;;;3.53;;
52962;SDS011;38827;53.024;6.596;2022-10-17T00:27:16;10.43;;;3.50;;
52962;SDS011;38827;53.024;6.596;2022-10-17T00:29:42;13.68;;;3.60;;
52962;SDS011;38827;53.024;6.596;2022-10-17T00:32:21;11.82;;;3.65;;
52962;SDS011;38827;53.024;6.596;2022-10-17T00:34:46;8.52;;;3.35;;
52962;SDS011;38827;53.024;6.596;2022-10-17T00:40:13;7.00;;;3.80;;
52962;SDS011;38827;53.024;6.596;2022-10-17T00:42:41;12.23;;;3.58;;
52962;SDS011;38827;53.024;6.596;2022-10-17T00:45:22;10.90;;;3.47;;
52962;SDS011;38827;53.024;6.596;2022-10-17T00:47:53;12.55;;;3.72;;
52962;SDS011;38827;53.024;6.596;2022-10-17T00:50:23;13.95;;;4.10;;
52962;SDS011;38827;53.024;6.596;2022-10-17T00:52:50;10.98;;;3.75;;
52962;SDS011;38827;53.024;6.596;2022-10-17T00:55:23;12.25;;;3.85;;
52962;SDS011;38827;53.024;6.596;2022-10-17T00:57:55;9.02;;;3.20;;
52962;SDS011;38827;53.024;6.596;2022-10-17T01:00:23;9.10;;;3.60;;
52962;SDS011;38827;53.024;6.596;2022-10-17T01:02:49;9.05;;;3.38;;
52962;SDS011;38827;53.024;6.596;2022-10-17T01:05:15;13.85;;;4.40;;
52962;SDS011;38827;53.024;6.596;2022-10-17T01:07:45;11.65;;;3.45;;
52962;SDS011;38827;53.024;6.596;2022-10-17T01:10:12;10.27;;;3.85;;
52962;SDS011;38827;53.024;6.596;2022-10-17T01:32:48;7.00;;;3.08;;
52962;SDS011;38827;53.024;6.596;2022-10-17T01:35:24;11.52;;;3.33;;
52962;SDS011;38827;53.024;6.596;2022-10-17T01:40:35;9.77;;;3.65;;
52962;SDS011;38827;53.024;6.596;2022-10-17T01:43:23;8.48;;;3.13;;
52962;SDS011;38827;53.024;6.596;2022-10-17T01:45:58;10.57;;;3.20;;
52962;SDS011;38827;53.024;6.596;2022-10-17T01:48:36;8.00;;;3.53;;
52962;SDS011;38827;53.024;6.596;2022-10-17T01:51:10;8.45;;;3.10;;
52962;SDS011;38827;53.024;6.596;2022-10-17T01:54:06;9.02;;;3.60;;
52962;SDS011;38827;53.024;6.596;2022-10-17T01:56:48;11.02;;;3.80;;
52962;SDS011;38827;53.024;6.596;2022-10-17T01:59:19;9.05;;;3.75;;
52962;SDS011;38827;53.024;6.596;2022-10-17T02:01:51;8.43;;;3.63;;
52962;SDS011;38827;53.024;6.596;2022-10-17T02:04:19;9.40;;;3.45;;
52962;SDS011;38827;53.024;6.596;2022-10-17T02:06:46;6.88;;;3.75;;
52962;SDS011;38827;53.024;6.596;2022-10-17T02:09:15;9.15;;;4.43;;
52962;SDS011;38827;53.024;6.596;2022-10-17T02:11:41;7.65;;;3.88;;
52962;SDS011;38827;53.024;6.596;2022-10-17T02:22:52;12.75;;;4.43;;
52962;SDS011;38827;53.024;6.596;2022-10-17T02:25:35;10.65;;;4.00;;
52962;SDS011;38827;53.024;6.596;2022-10-17T02:28:23;11.13;;;4.55;;
52962;SDS011;38827;53.024;6.596;2022-10-17T02:31:04;7.60;;;4.10;;
52962;SDS011;38827;53.024;6.596;2022-10-17T02:36:18;5.90;;;3.53;;
52962;SDS011;38827;53.024;6.596;2022-10-17T02:38:50;9.50;;;4.30;;
52962;SDS011;38827;53.024;6.596;2022-10-17T02:41:18;8.20;;;4.15;;
52962;SDS011;38827;53.024;6.596;2022-10-17T02:43:46;8.10;;;4.47;;
52962;SDS011;38827;53.024;6.596;2022-10-17T02:46:14;9.43;;;5.45;;
52962;SDS011;38827;53.024;6.596;2022-10-17T02:48:56;6.55;;;4.60;;
52962;SDS011;38827;53.024;6.596;2022-10-17T02:51:31;10.27;;;5.55;;
52962;SDS011;38827;53.024;6.596;2022-10-17T02:57:01;8.85;;;5.95;;
52962;SDS011;38827;53.024;6.596;2022-10-17T02:59:28;12.32;;;5.97;;
52962;SDS011;38827;53.024;6.596;2022-10-17T03:01:56;9.68;;;6.20;;
52962;SDS011;38827;53.024;6.596;2022-10-17T03:04:23;9.43;;;5.82;;
52962;SDS011;38827;53.024;6.596;2022-10-17T03:06:50;9.40;;;6.00;;
52962;SDS011;38827;53.024;6.596;2022-10-17T03:09:17;10.57;;;6.30;;
52962;SDS011;38827;53.024;6.596;2022-10-17T03:11:43;8.82;;;6.15;;
52962;SDS011;38827;53.024;6.596;2022-10-17T03:14:10;7.60;;;6.50;;
52962;SDS011;38827;53.024;6.596;2022-10-17T03:16:35;8.10;;;6.65;;
52962;SDS011;38827;53.024;6.596;2022-10-17T03:19:02;9.98;;;6.40;;
52962;SDS011;38827;53.024;6.596;2022-10-17T03:21:28;9.68;;;7.07;;
52962;SDS011;38827;53.024;6.596;2022-10-17T03:23:54;8.80;;;6.75;;
52962;SDS011;38827;53.024;6.596;2022-10-17T03:26:19;7.80;;;6.90;;
52962;SDS011;38827;53.024;6.596;2022-10-17T03:28:46;10.50;;;7.33;;
52962;SDS011;38827;53.024;6.596;2022-10-17T03:31:12;11.73;;;7.70;;
52962;SDS011;38827;53.024;6.596;2022-10-17T03:33:39;12.35;;;7.85;;
52962;SDS011;38827;53.024;6.596;2022-10-17T03:36:06;12.60;;;7.82;;
52962;SDS011;38827;53.024;6.596;2022-10-17T03:38:33;10.60;;;7.95;;
52962;SDS011;38827;53.024;6.596;2022-10-17T03:41:03;12.05;;;8.20;;
52962;SDS011;38827;53.024;6.596;2022-10-17T03:43:48;9.13;;;8.18;;
52962;SDS011;38827;53.024;6.596;2022-10-17T03:46:19;12.27;;;8.40;;
52962;SDS011;38827;53.024;6.596;2022-10-17T03:48:51;10.48;;;7.95;;
52962;SDS011;38827;53.024;6.596;2022-10-17T03:51:16;11.07;;;8.27;;
52962;SDS011;38827;53.024;6.596;2022-10-17T03:53:45;10.80;;;8.38;;
52962;SDS011;38827;53.024;6.596;2022-10-17T03:56:13;11.05;;;8.65;;
52962;SDS011;38827;53.024;6.596;2022-10-17T03:58:52;11.75;;;8.93;;
52962;SDS011;38827;53.024;6.596;2022-10-17T04:01:31;13.20;;;8.85;;
52962;SDS011;38827;53.024;6.596;2022-10-17T04:03:59;11.23;;;9.15;;
52962;SDS011;38827;53.024;6.596;2022-10-17T04:06:38;13.00;;;9.23;;
52962;SDS011;38827;53.024;6.596;2022-10-17T04:11:53;14.48;;;10.20;;
52962;SDS011;38827;53.024;6.596;2022-10-17T04:14:21;14.13;;;9.13;;
52962;SDS011;38827;53.024;6.596;2022-10-17T04:16:47;12.95;;;9.82;;
52962;SDS011;38827;53.024;6.596;2022-10-17T04:19:25;11.40;;;9.23;;
52962;SDS011;38827;53.024;6.596;2022-10-17T04:21:50;12.38;;;9.85;;
52962;SDS011;38827;53.024;6.596;2022-10-17T04:24:16;14.93;;;10.40;;
52962;SDS011;38827;53.024;6.596;2022-10-17T04:26:57;14.20;;;10.85;;
52962;SDS011;38827;53.024;6.596;2022-10-17T04:29:39;14.80;;;10.50;;
52962;SDS011;38827;53.024;6.596;2022-10-17T04:32:14;16.35;;;10.20;;
52962;SDS011;38827;53.024;6.596;2022-10-17T04:34:41;14.25;;;11.40;;
52962;SDS011;38827;53.024;6.596;2022-10-17T04:37:06;13.18;;;11.55;;
52962;SDS011;38827;53.024;6.596;2022-10-17T04:39:32;15.23;;;12.13;;
52962;SDS011;38827;53.024;6.596;2022-10-17T04:41:59;21.52;;;11.82;;
52962;SDS011;38827;53.024;6.596;2022-10-17T04:44:25;18.92;;;11.88;;
52962;SDS011;38827;53.024;6.596;2022-10-17T04:46:50;15.15;;;12.30;;
52962;SDS011;38827;53.024;6.596;2022-10-17T04:49:17;17.17;;;12.40;;
52962;SDS011;38827;53.024;6.596;2022-10-17T04:51:46;16.60;;;12.23;;
52962;SDS011;38827;53.024;6.596;2022-10-17T04:54:14;14.98;;;12.13;;
52962;SDS011;38827;53.024;6.596;2022-10-17T04:56:42;14.35;;;11.98;;
52962;SDS011;38827;53.024;6.596;2022-10-17T05:01:33;14.27;;;11.07;;
52962;SDS011;38827;53.024;6.596;2022-10-17T05:04:00;14.45;;;12.02;;
52962;SDS011;38827;53.024;6.596;2022-10-17T05:06:25;14.77;;;11.60;;
52962;SDS011;38827;53.024;6.596;2022-10-17T05:08:56;16.60;;;12.02;;
52962;SDS011;38827;53.024;6.596;2022-10-17T05:11:26;16.15;;;12.57;;
52962;SDS011;38827;53.024;6.596;2022-10-17T05:13:54;13.60;;;12.13;;
52962;SDS011;38827;53.024;6.596;2022-10-17T05:16:21;15.13;;;12.55;;
52962;SDS011;38827;53.024;6.596;2022-10-17T05:18:48;19.05;;;12.15;;
52962;SDS011;38827;53.024;6.596;2022-10-17T05:21:16;18.58;;;12.98;;
52962;SDS011;38827;53.024;6.596;2022-10-17T05:23:41;15.38;;;12.52;;
52962;SDS011;38827;53.024;6.596;2022-10-17T05:26:10;17.45;;;13.00;;
52962;SDS011;38827;53.024;6.596;2022-10-17T05:28:37;17.10;;;13.52;;
52962;SDS011;38827;53.024;6.596;2022-10-17T05:33:30;17.15;;;12.13;;
52962;SDS011;38827;53.024;6.596;2022-10-17T05:35:56;15.95;;;12.82;;
52962;SDS011;38827;53.024;6.596;2022-10-17T05:38:22;15.00;;;12.30;;
52962;SDS011;38827;53.024;6.596;2022-10-17T05:40:48;22.30;;;13.35;;
52962;SDS011;38827;53.024;6.596;2022-10-17T05:43:15;16.88;;;13.00;;
52962;SDS011;38827;53.024;6.596;2022-10-17T05:45:41;19.38;;;13.10;;
52962;SDS011;38827;53.024;6.596;2022-10-17T05:48:06;17.25;;;13.50;;
52962;SDS011;38827;53.024;6.596;2022-10-17T05:50:38;14.40;;;12.77;;
52962;SDS011;38827;53.024;6.596;2022-10-17T05:53:07;16.60;;;13.25;;
52962;SDS011;38827;53.024;6.596;2022-10-17T05:55:37;16.00;;;12.80;;
52962;SDS011;38827;53.024;6.596;2022-10-17T05:58:03;15.30;;;13.40;;
52962;SDS011;38827;53.024;6.596;2022-10-17T06:00:29;16.92;;;13.13;;
52962;SDS011;38827;53.024;6.596;2022-10-17T06:02:54;16.90;;;13.35;;
52962;SDS011;38827;53.024;6.596;2022-10-17T06:05:20;17.38;;;13.15;;
52962;SDS011;38827;53.024;6.596;2022-10-17T06:07:46;19.08;;;13.27;;
52962;SDS011;38827;53.024;6.596;2022-10-17T06:10:14;15.32;;;12.35;;
52962;SDS011;38827;53.024;6.596;2022-10-17T06:15:07;16.60;;;12.53;;
52962;SDS011;38827;53.024;6.596;2022-10-17T06:17:34;16.80;;;12.93;;
52962;SDS011;38827;53.024;6.596;2022-10-17T06:20:00;16.70;;;12.70;;
52962;SDS011;38827;53.024;6.596;2022-10-17T06:22:26;17.92;;;13.10;;
52962;SDS011;38827;53.024;6.596;2022-10-17T06:24:51;16.23;;;13.05;;
52962;SDS011;38827;53.024;6.596;2022-10-17T06:27:18;18.58;;;13.10;;
52962;SDS011;38827;53.024;6.596;2022-10-17T06:29:44;20.05;;;13.07;;
52962;SDS011;38827;53.024;6.596;2022-10-17T06:32:10;16.00;;;12.82;;
52962;SDS011;38827;53.024;6.596;2022-10-17T06:34:36;16.13;;;12.75;;
52962;SDS011;38827;53.024;6.596;2022-10-17T06:37:04;18.60;;;12.60;;
52962;SDS011;38827;53.024;6.596;2022-10-17T06:39:34;16.40;;;12.98;;
52962;SDS011;38827;53.024;6.596;2022-10-17T06:42:00;15.43;;;12.15;;
52962;SDS011;38827;53.024;6.596;2022-10-17T06:44:41;19.63;;;12.93;;
52962;SDS011;38827;53.024;6.596;2022-10-17T06:47:08;16.23;;;12.63;;
52962;SDS011;38827;53.024;6.596;2022-10-17T06:49:57;17.00;;;11.90;;
52962;SDS011;38827;53.024;6.596;2022-10-17T06:52:29;15.63;;;11.77;;
52962;SDS011;38827;53.024;6.596;2022-10-17T06:57:41;15.25;;;11.60;;
52962;SDS011;38827;53.024;6.596;2022-10-17T07:00:16;14.02;;;11.95;;
52962;SDS011;38827;53.024;6.596;2022-10-17T07:02:42;15.88;;;11.88;;
52962;SDS011;38827;53.024;6.596;2022-10-17T07:05:26;14.93;;;10.98;;
52962;SDS011;38827;53.024;6.596;2022-10-17T07:10:50;13.65;;;11.00;;
52962;SDS011;38827;53.024;6.596;2022-10-17T07:13:17;15.63;;;10.32;;
52962;SDS011;38827;53.024;6.596;2022-10-17T07:15:43;14.00;;;9.73;;
52962;SDS011;38827;53.024;6.596;2022-10-17T07:18:13;14.50;;;10.10;;
52962;SDS011;38827;53.024;6.596;2022-10-17T07:20:39;13.80;;;10.05;;
52962;SDS011;38827;53.024;6.596;2022-10-17T07:26:04;12.50;;;9.07;;
52962;SDS011;38827;53.024;6.596;2022-10-17T07:31:29;13.18;;;8.82;;
52962;SDS011;38827;53.024;6.596;2022-10-17T07:34:10;12.20;;;8.65;;
52962;SDS011;38827;53.024;6.596;2022-10-17T07:37:03;13.93;;;9.32;;
52962;SDS011;38827;53.024;6.596;2022-10-17T07:39:43;11.55;;;9.45;;
52962;SDS011;38827;53.024;6.596;2022-10-17T07:42:27;11.35;;;8.50;;
52962;SDS011;38827;53.024;6.596;2022-10-17T07:44:59;13.60;;;9.25;;
52962;SDS011;38827;53.024;6.596;2022-10-17T07:47:25;10.98;;;8.65;;
52962;SDS011;38827;53.024;6.596;2022-10-17T07:49:54;11.90;;;8.57;;
52962;SDS011;38827;53.024;6.596;2022-10-17T07:52:45;10.20;;;8.98;;
52962;SDS011;38827;53.024;6.596;2022-10-17T07:55:17;13.45;;;8.02;;
52962;SDS011;38827;53.024;6.596;2022-10-17T07:57:56;14.93;;;8.40;;
52962;SDS011;38827;53.024;6.596;2022-10-17T08:00:25;9.70;;;8.23;;
52962;SDS011;38827;53.024;6.596;2022-10-17T08:05:43;9.73;;;8.02;;
52962;SDS011;38827;53.024;6.596;2022-10-17T08:08:09;9.70;;;8.18;;
52962;SDS011;38827;53.024;6.596;2022-10-17T08:10:47;14.52;;;8.30;;
52962;SDS011;38827;53.024;6.596;2022-10-17T08:18:44;9.15;;;7.38;;
52962;SDS011;38827;53.024;6.596;2022-10-17T08:21:26;9.38;;;6.95;;
52962;SDS011;38827;53.024;6.596;2022-10-17T08:24:11;11.45;;;7.30;;
52962;SDS011;38827;53.024;6.596;2022-10-17T08:29:55;11.32;;;7.40;;
52962;SDS011;38827;53.024;6.596;2022-10-17T08:32:22;9.85;;;7.03;;
52962;SDS011;38827;53.024;6.596;2022-10-17T08:35:10;10.23;;;7.07;;
52962;SDS011;38827;53.024;6.596;2022-10-17T08:37:57;9.55;;;6.97;;
52962;SDS011;38827;53.024;6.596;2022-10-17T08:40:31;8.75;;;6.95;;
52962;SDS011;38827;53.024;6.596;2022-10-17T08:43:11;11.60;;;7.22;;
52962;SDS011;38827;53.024;6.596;2022-10-17T08:46:04;11.95;;;7.18;;
52962;SDS011;38827;53.024;6.596;2022-10-17T08:48:33;10.23;;;6.70;;
52962;SDS011;38827;53.024;6.596;2022-10-17T08:51:32;10.25;;;7.10;;
52962;SDS011;38827;53.024;6.596;2022-10-17T08:54:37;8.88;;;7.05;;
52962;SDS011;38827;53.024;6.596;2022-10-17T08:57:46;12.63;;;7.40;;
52962;SDS011;38827;53.024;6.596;2022-10-17T09:00:28;10.27;;;6.88;;
52962;SDS011;38827;53.024;6.596;2022-10-17T09:03:00;9.73;;;6.65;;
52962;SDS011;38827;53.024;6.596;2022-10-17T09:36:35;11.32;;;6.30;;
52962;SDS011;38827;53.024;6.596;2022-10-17T09:39:18;10.10;;;6.70;;
52962;SDS011;38827;53.024;6.596;2022-10-17T09:42:49;10.20;;;7.22;;
52962;SDS011;38827;53.024;6.596;2022-10-17T09:49:03;12.20;;;6.68;;
52962;SDS011;38827;53.024;6.596;2022-10-17T09:52:10;9.57;;;6.80;;
52962;SDS011;38827;53.024;6.596;2022-10-17T09:55:44;10.55;;;7.50;;
52962;SDS011;38827;53.024;6.596;2022-10-17T10:05:25;10.88;;;7.72;;
52962;SDS011;38827;53.024;6.596;2022-10-17T11:14:55;13.95;;;10.30;;
52962;SDS011;38827;53.024;6.596;2022-10-17T11:24:24;12.27;;;10.05;;
52962;SDS011;38827;53.024;6.596;2022-10-17T11:27:19;14.25;;;10.65;;
52962;SDS011;38827;53.024;6.596;2022-10-17T11:29:50;11.63;;;9.27;;
52962;SDS011;38827;53.024;6.596;2022-10-17T11:35:18;12.82;;;10.10;;
52962;SDS011;38827;53.024;6.596;2022-10-17T11:38:23;11.80;;;10.07;;
52962;SDS011;38827;53.024;6.596;2022-10-17T11:44:54;13.25;;;10.13;;
52962;SDS011;38827;53.024;6.596;2022-10-17T11:47:45;18.08;;;10.73;;
52962;SDS011;38827;53.024;6.596;2022-10-17T11:50:30;17.52;;;10.50;;
52962;SDS011;38827;53.024;6.596;2022-10-17T12:10:52;9.70;;;7.65;;
52962;SDS011;38827;53.024;6.596;2022-10-17T12:19:24;7.15;;;6.45;;
52962;SDS011;38827;53.024;6.596;2022-10-17T12:32:35;8.73;;;6.78;;
52962;SDS011;38827;53.024;6.596;2022-10-17T12:53:16;6.50;;;5.28;;
52962;SDS011;38827;53.024;6.596;2022-10-17T12:56:00;3.38;;;3.05;;
52962;SDS011;38827;53.024;6.596;2022-10-17T12:58:30;5.40;;;2.70;;
52962;SDS011;38827;53.024;6.596;2022-10-17T13:03:45;3.85;;;2.67;;
52962;SDS011;38827;53.024;6.596;2022-10-17T13:06:19;3.38;;;2.53;;
52962;SDS011;38827;53.024;6.596;2022-10-17T13:12:26;5.80;;;3.20;;
52962;SDS011;38827;53.024;6.596;2022-10-17T13:14:55;3.90;;;2.90;;
52962;SDS011;38827;53.024;6.596;2022-10-17T13:17:36;4.32;;;2.72;;
52962;SDS011;38827;53.024;6.596;2022-10-17T13:20:27;6.70;;;4.03;;
52962;SDS011;38827;53.024;6.596;2022-10-17T13:23:01;3.63;;;3.33;;
52962;SDS011;38827;53.024;6.596;2022-10-17T13:28:31;6.68;;;3.45;;
52962;SDS011;38827;53.024;6.596;2022-10-17T13:31:03;6.88;;;4.78;;
52962;SDS011;38827;53.024;6.596;2022-10-17T13:33:37;6.28;;;3.72;;
52962;SDS011;38827;53.024;6.596;2022-10-17T13:36:12;5.43;;;3.67;;
52962;SDS011;38827;53.024;6.596;2022-10-17T13:39:13;5.07;;;3.55;;
52962;SDS011;38827;53.024;6.596;2022-10-17T13:45:00;4.63;;;3.20;;
52962;SDS011;38827;53.024;6.596;2022-10-17T13:47:38;4.78;;;3.63;;
52962;SDS011;38827;53.024;6.596;2022-10-17T13:53:34;7.03;;;3.63;;
52962;SDS011;38827;53.024;6.596;2022-10-17T14:02:23;4.32;;;3.20;;
52962;SDS011;38827;53.024;6.596;2022-10-17T14:08:12;4.30;;;2.67;;
52962;SDS011;38827;53.024;6.596;2022-10-17T14:11:00;3.28;;;2.80;;
52962;SDS011;38827;53.024;6.596;2022-10-17T14:13:52;6.15;;;2.88;;
52962;SDS011;38827;53.024;6.596;2022-10-17T14:22:16;3.78;;;2.63;;
52962;SDS011;38827;53.024;6.596;2022-10-17T14:25:01;7.63;;;3.05;;
52962;SDS011;38827;53.024;6.596;2022-10-17T14:30:51;4.00;;;2.92;;
52962;SDS011;38827;53.024;6.596;2022-10-17T14:33:53;6.10;;;2.47;;
52962;SDS011;38827;53.024;6.596;2022-10-17T14:36:39;6.40;;;2.13;;
52962;SDS011;38827;53.024;6.596;2022-10-17T14:39:26;6.10;;;2.40;;
52962;SDS011;38827;53.024;6.596;2022-10-17T14:41:52;3.75;;;2.45;;
52962;SDS011;38827;53.024;6.596;2022-10-17T14:47:25;6.82;;;2.25;;
52962;SDS011;38827;53.024;6.596;2022-10-17T15:02:56;4.40;;;2.08;;
52962;SDS011;38827;53.024;6.596;2022-10-17T15:05:22;5.05;;;2.20;;
52962;SDS011;38827;53.024;6.596;2022-10-17T15:08:11;3.58;;;2.10;;
52962;SDS011;38827;53.024;6.596;2022-10-17T15:11:04;5.20;;;1.98;;
52962;SDS011;38827;53.024;6.596;2022-10-17T15:13:45;3.30;;;1.98;;
52962;SDS011;38827;53.024;6.596;2022-10-17T15:16:22;3.75;;;2.03;;
52962;SDS011;38827;53.024;6.596;2022-10-17T15:24:38;3.35;;;2.00;;
52962;SDS011;38827;53.024;6.596;2022-10-17T17:08:56;9.55;;;7.05;;
52962;SDS011;38827;53.024;6.596;2022-10-17T18:33:40;16.20;;;12.75;;
52962;SDS011;38827;53.024;6.596;2022-10-17T18:54:44;27.40;;;15.30;;
52962;SDS011;38827;53.024;6.596;2022-10-17T18:57:22;26.13;;;15.00;;
52962;SDS011;38827;53.024;6.596;2022-10-17T19:01:17;22.33;;;16.00;;
52962;SDS011;38827;53.024;6.596;2022-10-17T19:03:49;27.83;;;17.35;;
52962;SDS011;38827;53.024;6.596;2022-10-17T19:33:09;24.63;;;17.45;;
52962;SDS011;38827;53.024;6.596;2022-10-17T20:31:37;37.13;;;23.42;;
52962;SDS011;38827;53.024;6.596;2022-10-17T20:34:21;37.88;;;23.63;;
52962;SDS011;38827;53.024;6.596;2022-10-17T20:39:56;37.67;;;23.67;;
52962;SDS011;38827;53.024;6.596;2022-10-17T20:42:27;47.05;;;26.23;;
52962;SDS011;38827;53.024;6.596;2022-10-17T20:44:55;51.80;;;27.60;;
52962;SDS011;38827;53.024;6.596;2022-10-17T20:50:16;36.70;;;23.90;;
52962;SDS011;38827;53.024;6.596;2022-10-17T20:52:59;42.80;;;24.90;;
52962;SDS011;38827;53.024;6.596;2022-10-17T20:58:24;40.70;;;24.80;;
52962;SDS011;38827;53.024;6.596;2022-10-17T21:01:04;41.92;;;26.55;;
52962;SDS011;38827;53.024;6.596;2022-10-17T21:03:37;47.17;;;27.40;;
52962;SDS011;38827;53.024;6.596;2022-10-17T21:06:08;42.75;;;26.00;;
52962;SDS011;38827;53.024;6.596;2022-10-17T21:08:34;34.50;;;23.95;;
52962;SDS011;38827;53.024;6.596;2022-10-17T21:14:10;45.17;;;25.67;;
52962;SDS011;38827;53.024;6.596;2022-10-17T21:16:45;38.05;;;24.23;;
52962;SDS011;38827;53.024;6.596;2022-10-17T21:19:19;39.95;;;24.77;;
52962;SDS011;38827;53.024;6.596;2022-10-17T21:21:55;37.78;;;24.27;;
52962;SDS011;38827;53.024;6.596;2022-10-17T21:24:39;56.90;;;28.80;;
52962;SDS011;38827;53.024;6.596;2022-10-17T21:27:14;51.83;;;28.40;;
52962;SDS011;38827;53.024;6.596;2022-10-17T21:29:42;45.47;;;25.75;;
52962;SDS011;38827;53.024;6.596;2022-10-17T21:35:53;39.72;;;25.83;;
52962;SDS011;38827;53.024;6.596;2022-10-17T21:38:19;47.15;;;26.73;;
52962;SDS011;38827;53.024;6.596;2022-10-17T21:49:59;63.03;;;31.30;;
52962;SDS011;38827;53.024;6.596;2022-10-17T21:52:25;61.38;;;31.63;;
52962;SDS011;38827;53.024;6.596;2022-10-17T21:54:51;82.90;;;35.42;;
52962;SDS011;38827;53.024;6.596;2022-10-17T21:57:28;60.65;;;31.52;;
52962;SDS011;38827;53.024;6.596;2022-10-17T21:59:57;83.38;;;36.08;;
52962;SDS011;38827;53.024;6.596;2022-10-17T22:02:41;81.93;;;35.85;;
52962;SDS011;38827;53.024;6.596;2022-10-17T22:05:10;71.78;;;34.72;;
52962;SDS011;38827;53.024;6.596;2022-10-17T22:07:35;59.13;;;31.27;;
52962;SDS011;38827;53.024;6.596;2022-10-17T22:10:16;76.30;;;36.63;;
52962;SDS011;38827;53.024;6.596;2022-10-17T22:12:51;65.25;;;32.30;;
52962;SDS011;38827;53.024;6.596;2022-10-17T22:15:20;61.97;;;31.55;;
52962;SDS011;38827;53.024;6.596;2022-10-17T22:17:49;50.88;;;28.08;;
52962;SDS011;38827;53.024;6.596;2022-10-17T22:20:15;73.95;;;34.15;;
52962;SDS011;38827;53.024;6.596;2022-10-17T22:23:09;80.18;;;33.88;;
52962;SDS011;38827;53.024;6.596;2022-10-17T22:25:38;57.08;;;29.70;;
52962;SDS011;38827;53.024;6.596;2022-10-17T22:30:39;65.45;;;31.27;;
52962;SDS011;38827;53.024;6.596;2022-10-17T22:33:11;55.25;;;31.25;;
52962;SDS011;38827;53.024;6.596;2022-10-17T22:35:46;59.20;;;30.13;;
52962;SDS011;38827;53.024;6.596;2022-10-17T22:38:30;54.90;;;29.73;;
52962;SDS011;38827;53.024;6.596;2022-10-17T22:41:14;52.33;;;28.75;;
52962;SDS011;38827;53.024;6.596;2022-10-17T22:43:58;72.63;;;32.28;;
52962;SDS011;38827;53.024;6.596;2022-10-17T22:46:39;53.78;;;28.42;;
52962;SDS011;38827;53.024;6.596;2022-10-17T22:49:22;68.65;;;31.17;;
52962;SDS011;38827;53.024;6.596;2022-10-17T22:57:30;68.45;;;30.55;;
52962;SDS011;38827;53.024;6.596;2022-10-17T23:00:11;67.25;;;30.88;;
52962;SDS011;38827;53.024;6.596;2022-10-17T23:02:46;54.10;;;28.30;;
52962;SDS011;38827;53.024;6.596;2022-10-17T23:05:27;63.13;;;29.13;;
52962;SDS011;38827;53.024;6.596;2022-10-17T23:08:11;45.33;;;26.75;;
52962;SDS011;38827;53.024;6.596;2022-10-17T23:10:50;65.78;;;29.80;;
52962;SDS011;38827;53.024;6.596;2022-10-17T23:13:16;58.30;;;28.15;;
52962;SDS011;38827;53.024;6.596;2022-10-17T23:15:50;57.22;;;28.50;;
52962;SDS011;38827;53.024;6.596;2022-10-17T23:18:28;50.55;;;27.15;;
52962;SDS011;38827;53.024;6.596;2022-10-17T23:21:00;65.65;;;30.13;;
52962;SDS011;38827;53.024;6.596;2022-10-17T23:23:25;50.55;;;27.00;;
52962;SDS011;38827;53.024;6.596;2022-10-17T23:26:36;58.00;;;27.70;;
52962;SDS011;38827;53.024;6.596;2022-10-17T23:28:51;42.78;;;23.67;;
52962;SDS011;38827;53.024;6.596;2022-10-17T23:31:21;51.85;;;26.45;;
52962;SDS011;38827;53.024;6.596;2022-10-17T23:34:15;53.45;;;26.25;;
52962;SDS011;38827;53.024;6.596;2022-10-17T23:36:57;58.22;;;26.70;;
52962;SDS011;38827;53.024;6.596;2022-10-17T23:39:41;50.85;;;26.33;;
52962;SDS011;38827;53.024;6.596;2022-10-17T23:42:11;47.90;;;24.67;;
52962;SDS011;38827;53.024;6.596;2022-10-17T23:44:40;53.30;;;26.45;;
52962;SDS011;38827;53.024;6.596;2022-10-17T23:47:12;46.53;;;24.05;;
52962;SDS011;38827;53.024;6.596;2022-10-17T23:49:52;61.08;;;27.20;;
52962;SDS011;38827;53.024;6.596;2022-10-17T23:52:30;60.05;;;28.63;;
52962;SDS011;38827;53.024;6.596;2022-10-17T23:55:08;66.20;;;28.63;;
52962;SDS011;38827;53.024;6.596;2022-10-17T23:57:36;59.67;;;27.38;;
